sensor_id;sensor_type;location;lat;lon;timestamp;temperature;humidity
26589;DHT22;14235;48.532;8.722;2023-05-10T00:01:11;15.40;99.90
26589;DHT22;14235;48.532;8.722;2023-05-10T00:03:37;15.50;99.90
26589;DHT22;14235;48.532;8.722;2023-05-10T00:06:02;15.30;99.90
26589;DHT22;14235;48.532;8.722;2023-05-10T00:08:28;15.30;99.90
26589;DHT22;14235;48.532;8.722;2023-05-10T00:10:53;15.50;99.90
26589;DHT22;14235;48.532;8.722;2023-05-10T00:13:19;15.30;99.90
26589;DHT22;14235;48.532;8.722;2023-05-10T00:15:45;15.40;99.90
26589;DHT22;14235;48.532;8.722;2023-05-10T00:18:10;15.20;99.90
26589;DHT22;14235;48.532;8.722;2023-05-10T00:20:36;15.30;99.90
26589;DHT22;14235;48.532;8.722;2023-05-10T00:23:02;15.50;99.90
26589;DHT22;14235;48.532;8.722;2023-05-10T00:25:27;15.60;99.90
26589;DHT22;14235;48.532;8.722;2023-05-10T00:27:53;15.30;99.90
26589;DHT22;14235;48.532;8.722;2023-05-10T00:30:20;15.30;99.90
26589;DHT22;14235;48.532;8.722;2023-05-10T00:32:46;15.30;99.90
26589;DHT22;14235;48.532;8.722;2023-05-10T00:35:13;15.30;99.90
26589;DHT22;14235;48.532;8.722;2023-05-10T00:37:38;15.20;99.90
26589;DHT22;14235;48.532;8.722;2023-05-10T00:40:05;15.20;99.90
26589;DHT22;14235;48.532;8.722;2023-05-10T00:42:31;15.10;99.90
26589;DHT22;14235;48.532;8.722;2023-05-10T00:44:56;15.10;99.90
26589;DHT22;14235;48.532;8.722;2023-05-10T00:47:22;15.10;99.90
26589;DHT22;14235;48.532;8.722;2023-05-10T00:49:48;15.10;99.90
26589;DHT22;14235;48.532;8.722;2023-05-10T00:52:14;15.00;99.90
26589;DHT22;14235;48.532;8.722;2023-05-10T00:54:39;15.20;99.90
26589;DHT22;14235;48.532;8.722;2023-05-10T00:57:05;15.20;99.90
26589;DHT22;14235;48.532;8.722;2023-05-10T00:59:31;15.30;99.90
26589;DHT22;14235;48.532;8.722;2023-05-10T01:01:58;15.10;99.90
26589;DHT22;14235;48.532;8.722;2023-05-10T01:04:23;15.10;99.90
26589;DHT22;14235;48.532;8.722;2023-05-10T01:06:51;15.10;99.90
26589;DHT22;14235;48.532;8.722;2023-05-10T01:09:18;15.00;99.90
26589;DHT22;14235;48.532;8.722;2023-05-10T01:11:44;15.00;99.90
26589;DHT22;14235;48.532;8.722;2023-05-10T01:14:10;15.00;99.90
26589;DHT22;14235;48.532;8.722;2023-05-10T01:16:38;15.00;99.90
26589;DHT22;14235;48.532;8.722;2023-05-10T01:19:17;15.10;99.90
26589;DHT22;14235;48.532;8.722;2023-05-10T01:21:51;15.20;99.90
26589;DHT22;14235;48.532;8.722;2023-05-10T01:35:17;14.90;99.90
26589;DHT22;14235;48.532;8.722;2023-05-10T01:37:49;14.90;99.90
26589;DHT22;14235;48.532;8.722;2023-05-10T01:40:36;15.60;99.90
26589;DHT22;14235;48.532;8.722;2023-05-10T01:43:05;15.10;99.90
26589;DHT22;14235;48.532;8.722;2023-05-10T01:48:26;14.80;99.90
26589;DHT22;14235;48.532;8.722;2023-05-10T01:50:53;14.80;99.90
26589;DHT22;14235;48.532;8.722;2023-05-10T01:53:20;14.80;99.90
26589;DHT22;14235;48.532;8.722;2023-05-10T01:55:49;15.10;99.90
26589;DHT22;14235;48.532;8.722;2023-05-10T01:58:25;15.00;99.90
26589;DHT22;14235;48.532;8.722;2023-05-10T02:00:54;14.70;99.90
26589;DHT22;14235;48.532;8.722;2023-05-10T02:03:23;14.60;99.90
26589;DHT22;14235;48.532;8.722;2023-05-10T02:05:50;14.80;99.90
26589;DHT22;14235;48.532;8.722;2023-05-10T02:08:18;15.30;99.90
26589;DHT22;14235;48.532;8.722;2023-05-10T02:10:45;14.60;99.90
26589;DHT22;14235;48.532;8.722;2023-05-10T02:13:12;14.60;99.90
26589;DHT22;14235;48.532;8.722;2023-05-10T02:15:40;14.90;99.90
26589;DHT22;14235;48.532;8.722;2023-05-10T02:18:07;14.90;99.90
26589;DHT22;14235;48.532;8.722;2023-05-10T02:20:34;14.50;99.90
26589;DHT22;14235;48.532;8.722;2023-05-10T02:23:01;14.60;99.90
26589;DHT22;14235;48.532;8.722;2023-05-10T02:25:28;15.40;99.90
26589;DHT22;14235;48.532;8.722;2023-05-10T02:27:56;15.20;99.90
26589;DHT22;14235;48.532;8.722;2023-05-10T02:30:23;14.60;99.90
26589;DHT22;14235;48.532;8.722;2023-05-10T02:32:50;14.60;99.90
26589;DHT22;14235;48.532;8.722;2023-05-10T02:35:17;15.30;99.90
26589;DHT22;14235;48.532;8.722;2023-05-10T02:37:44;15.10;99.90
26589;DHT22;14235;48.532;8.722;2023-05-10T02:40:10;15.20;99.90
26589;DHT22;14235;48.532;8.722;2023-05-10T02:42:37;14.40;99.90
26589;DHT22;14235;48.532;8.722;2023-05-10T02:45:17;15.10;99.90
26589;DHT22;14235;48.532;8.722;2023-05-10T02:47:43;14.50;99.90
26589;DHT22;14235;48.532;8.722;2023-05-10T02:50:09;14.70;99.90
26589;DHT22;14235;48.532;8.722;2023-05-10T02:52:46;14.40;99.90
26589;DHT22;14235;48.532;8.722;2023-05-10T02:55:15;14.40;99.90
26589;DHT22;14235;48.532;8.722;2023-05-10T02:58:01;14.80;99.90
26589;DHT22;14235;48.532;8.722;2023-05-10T03:00:27;14.40;99.90
26589;DHT22;14235;48.532;8.722;2023-05-10T03:02:54;14.40;99.90
26589;DHT22;14235;48.532;8.722;2023-05-10T03:05:20;14.40;99.90
26589;DHT22;14235;48.532;8.722;2023-05-10T03:07:46;14.40;99.90
26589;DHT22;14235;48.532;8.722;2023-05-10T03:10:12;14.50;99.90
26589;DHT22;14235;48.532;8.722;2023-05-10T03:18:33;14.30;99.90
26589;DHT22;14235;48.532;8.722;2023-05-10T03:21:03;14.30;99.90
26589;DHT22;14235;48.532;8.722;2023-05-10T03:24:18;14.40;99.90
26589;DHT22;14235;48.532;8.722;2023-05-10T03:26:27;14.30;99.90
26589;DHT22;14235;48.532;8.722;2023-05-10T03:28:54;14.80;99.90
26589;DHT22;14235;48.532;8.722;2023-05-10T03:31:20;14.80;99.90
26589;DHT22;14235;48.532;8.722;2023-05-10T03:33:50;15.00;99.90
26589;DHT22;14235;48.532;8.722;2023-05-10T03:36:17;14.80;99.90
26589;DHT22;14235;48.532;8.722;2023-05-10T03:38:42;14.50;99.90
26589;DHT22;14235;48.532;8.722;2023-05-10T03:41:08;14.30;99.90
26589;DHT22;14235;48.532;8.722;2023-05-10T03:43:33;14.30;99.90
26589;DHT22;14235;48.532;8.722;2023-05-10T03:46:02;14.90;99.90
26589;DHT22;14235;48.532;8.722;2023-05-10T03:48:27;14.30;99.90
26589;DHT22;14235;48.532;8.722;2023-05-10T03:50:53;14.30;99.90
26589;DHT22;14235;48.532;8.722;2023-05-10T03:53:18;14.50;99.90
26589;DHT22;14235;48.532;8.722;2023-05-10T03:55:44;14.60;99.90
26589;DHT22;14235;48.532;8.722;2023-05-10T03:58:13;14.30;99.90
26589;DHT22;14235;48.532;8.722;2023-05-10T04:00:38;14.20;99.90
26589;DHT22;14235;48.532;8.722;2023-05-10T04:03:13;14.40;99.90
26589;DHT22;14235;48.532;8.722;2023-05-10T04:05:39;14.30;99.90
26589;DHT22;14235;48.532;8.722;2023-05-10T04:08:05;14.40;99.90
26589;DHT22;14235;48.532;8.722;2023-05-10T04:10:31;14.60;99.90
26589;DHT22;14235;48.532;8.722;2023-05-10T04:12:57;14.20;99.90
26589;DHT22;14235;48.532;8.722;2023-05-10T04:15:22;14.60;99.90
26589;DHT22;14235;48.532;8.722;2023-05-10T04:17:48;15.00;99.90
26589;DHT22;14235;48.532;8.722;2023-05-10T04:20:14;14.20;99.90
26589;DHT22;14235;48.532;8.722;2023-05-10T04:22:40;14.20;99.90
26589;DHT22;14235;48.532;8.722;2023-05-10T04:25:06;14.20;99.90
26589;DHT22;14235;48.532;8.722;2023-05-10T04:27:32;14.20;99.90
26589;DHT22;14235;48.532;8.722;2023-05-10T04:29:58;14.10;99.90
26589;DHT22;14235;48.532;8.722;2023-05-10T04:32:23;14.20;99.90
26589;DHT22;14235;48.532;8.722;2023-05-10T04:34:49;14.20;99.90
26589;DHT22;14235;48.532;8.722;2023-05-10T04:37:16;14.10;99.90
26589;DHT22;14235;48.532;8.722;2023-05-10T04:39:42;14.20;99.90
26589;DHT22;14235;48.532;8.722;2023-05-10T04:42:08;14.20;99.90
26589;DHT22;14235;48.532;8.722;2023-05-10T04:44:34;14.20;99.90
26589;DHT22;14235;48.532;8.722;2023-05-10T04:47:00;14.20;99.90
26589;DHT22;14235;48.532;8.722;2023-05-10T04:49:27;14.10;99.90
26589;DHT22;14235;48.532;8.722;2023-05-10T04:51:53;14.20;99.90
26589;DHT22;14235;48.532;8.722;2023-05-10T04:54:19;14.10;99.90
26589;DHT22;14235;48.532;8.722;2023-05-10T04:56:45;14.10;99.90
26589;DHT22;14235;48.532;8.722;2023-05-10T04:59:10;14.20;99.90
26589;DHT22;14235;48.532;8.722;2023-05-10T05:01:36;14.10;99.90
26589;DHT22;14235;48.532;8.722;2023-05-10T05:04:02;14.10;99.90
26589;DHT22;14235;48.532;8.722;2023-05-10T05:06:28;14.00;99.90
26589;DHT22;14235;48.532;8.722;2023-05-10T05:08:53;14.10;99.90
26589;DHT22;14235;48.532;8.722;2023-05-10T05:11:19;14.10;99.90
26589;DHT22;14235;48.532;8.722;2023-05-10T05:13:46;14.10;99.90
26589;DHT22;14235;48.532;8.722;2023-05-10T05:16:12;14.10;99.90
26589;DHT22;14235;48.532;8.722;2023-05-10T05:18:38;14.00;99.90
26589;DHT22;14235;48.532;8.722;2023-05-10T05:21:13;14.10;99.90
26589;DHT22;14235;48.532;8.722;2023-05-10T05:23:39;14.10;99.90
26589;DHT22;14235;48.532;8.722;2023-05-10T05:26:05;14.20;99.90
26589;DHT22;14235;48.532;8.722;2023-05-10T05:28:31;14.20;99.90
26589;DHT22;14235;48.532;8.722;2023-05-10T05:30:59;14.20;99.90
26589;DHT22;14235;48.532;8.722;2023-05-10T05:33:25;14.20;99.90
26589;DHT22;14235;48.532;8.722;2023-05-10T05:35:50;14.10;99.90
26589;DHT22;14235;48.532;8.722;2023-05-10T05:38:16;14.20;99.90
26589;DHT22;14235;48.532;8.722;2023-05-10T05:40:43;14.20;99.90
26589;DHT22;14235;48.532;8.722;2023-05-10T05:43:08;14.30;99.90
26589;DHT22;14235;48.532;8.722;2023-05-10T05:45:34;14.30;99.90
26589;DHT22;14235;48.532;8.722;2023-05-10T05:48:00;14.20;99.90
26589;DHT22;14235;48.532;8.722;2023-05-10T05:50:25;14.30;99.90
26589;DHT22;14235;48.532;8.722;2023-05-10T05:52:51;14.40;99.90
26589;DHT22;14235;48.532;8.722;2023-05-10T05:55:17;14.30;99.90
26589;DHT22;14235;48.532;8.722;2023-05-10T05:57:42;14.30;99.90
26589;DHT22;14235;48.532;8.722;2023-05-10T06:00:08;14.40;99.90
26589;DHT22;14235;48.532;8.722;2023-05-10T06:02:34;14.30;99.90
26589;DHT22;14235;48.532;8.722;2023-05-10T06:05:00;14.40;99.90
26589;DHT22;14235;48.532;8.722;2023-05-10T06:07:26;14.40;99.90
26589;DHT22;14235;48.532;8.722;2023-05-10T06:09:52;14.40;99.90
26589;DHT22;14235;48.532;8.722;2023-05-10T06:12:17;14.40;99.90
26589;DHT22;14235;48.532;8.722;2023-05-10T06:14:43;14.40;99.90
26589;DHT22;14235;48.532;8.722;2023-05-10T06:17:08;14.40;99.90
26589;DHT22;14235;48.532;8.722;2023-05-10T06:19:34;14.50;99.90
26589;DHT22;14235;48.532;8.722;2023-05-10T06:22:00;14.40;99.90
26589;DHT22;14235;48.532;8.722;2023-05-10T06:24:26;14.40;99.90
26589;DHT22;14235;48.532;8.722;2023-05-10T06:26:52;14.40;99.90
26589;DHT22;14235;48.532;8.722;2023-05-10T06:29:18;14.40;99.90
26589;DHT22;14235;48.532;8.722;2023-05-10T06:31:43;14.40;99.90
26589;DHT22;14235;48.532;8.722;2023-05-10T06:34:09;14.40;99.90
26589;DHT22;14235;48.532;8.722;2023-05-10T06:36:37;14.40;99.90
26589;DHT22;14235;48.532;8.722;2023-05-10T06:39:02;14.40;99.90
26589;DHT22;14235;48.532;8.722;2023-05-10T06:41:28;14.40;99.90
26589;DHT22;14235;48.532;8.722;2023-05-10T06:43:54;14.50;99.90
26589;DHT22;14235;48.532;8.722;2023-05-10T06:46:20;14.50;99.90
26589;DHT22;14235;48.532;8.722;2023-05-10T06:48:45;14.50;99.90
26589;DHT22;14235;48.532;8.722;2023-05-10T06:51:11;14.50;99.90
26589;DHT22;14235;48.532;8.722;2023-05-10T06:53:37;14.50;99.90
26589;DHT22;14235;48.532;8.722;2023-05-10T06:56:02;14.60;99.90
26589;DHT22;14235;48.532;8.722;2023-05-10T06:58:28;14.50;99.90
26589;DHT22;14235;48.532;8.722;2023-05-10T07:00:54;14.60;99.90
26589;DHT22;14235;48.532;8.722;2023-05-10T07:03:20;14.60;99.90
26589;DHT22;14235;48.532;8.722;2023-05-10T07:05:45;14.60;99.90
26589;DHT22;14235;48.532;8.722;2023-05-10T07:08:11;14.60;99.90
26589;DHT22;14235;48.532;8.722;2023-05-10T07:10:37;14.60;99.90
26589;DHT22;14235;48.532;8.722;2023-05-10T07:13:02;14.70;99.90
26589;DHT22;14235;48.532;8.722;2023-05-10T07:15:28;14.60;99.90
26589;DHT22;14235;48.532;8.722;2023-05-10T07:17:54;14.60;99.90
26589;DHT22;14235;48.532;8.722;2023-05-10T07:20:19;14.60;99.90
26589;DHT22;14235;48.532;8.722;2023-05-10T07:22:45;14.60;99.90
26589;DHT22;14235;48.532;8.722;2023-05-10T07:25:11;14.70;99.90
26589;DHT22;14235;48.532;8.722;2023-05-10T07:27:37;14.60;99.90
26589;DHT22;14235;48.532;8.722;2023-05-10T07:30:03;14.60;99.90
26589;DHT22;14235;48.532;8.722;2023-05-10T07:32:37;14.60;99.90
26589;DHT22;14235;48.532;8.722;2023-05-10T07:35:04;15.80;99.90
26589;DHT22;14235;48.532;8.722;2023-05-10T07:37:30;14.60;99.90
26589;DHT22;14235;48.532;8.722;2023-05-10T07:39:56;15.10;99.90
26589;DHT22;14235;48.532;8.722;2023-05-10T07:42:21;14.90;99.90
26589;DHT22;14235;48.532;8.722;2023-05-10T07:44:47;14.90;99.90
26589;DHT22;14235;48.532;8.722;2023-05-10T07:47:12;14.90;99.90
26589;DHT22;14235;48.532;8.722;2023-05-10T07:49:38;14.80;99.90
26589;DHT22;14235;48.532;8.722;2023-05-10T07:52:03;14.80;99.90
26589;DHT22;14235;48.532;8.722;2023-05-10T07:54:29;15.20;99.90
26589;DHT22;14235;48.532;8.722;2023-05-10T07:56:55;14.70;99.90
26589;DHT22;14235;48.532;8.722;2023-05-10T07:59:20;14.90;99.90
26589;DHT22;14235;48.532;8.722;2023-05-10T08:01:46;14.80;99.90
26589;DHT22;14235;48.532;8.722;2023-05-10T08:04:11;14.70;99.90
26589;DHT22;14235;48.532;8.722;2023-05-10T08:06:37;14.70;99.90
26589;DHT22;14235;48.532;8.722;2023-05-10T08:09:03;15.00;99.90
26589;DHT22;14235;48.532;8.722;2023-05-10T08:11:28;14.80;99.90
26589;DHT22;14235;48.532;8.722;2023-05-10T08:13:54;14.80;99.90
26589;DHT22;14235;48.532;8.722;2023-05-10T08:16:20;14.80;99.90
26589;DHT22;14235;48.532;8.722;2023-05-10T08:18:46;14.90;99.90
26589;DHT22;14235;48.532;8.722;2023-05-10T08:21:15;14.80;99.90
26589;DHT22;14235;48.532;8.722;2023-05-10T08:23:41;15.00;99.90
26589;DHT22;14235;48.532;8.722;2023-05-10T08:26:07;14.90;99.90
26589;DHT22;14235;48.532;8.722;2023-05-10T08:28:32;14.80;99.90
26589;DHT22;14235;48.532;8.722;2023-05-10T08:30:58;14.90;99.90
26589;DHT22;14235;48.532;8.722;2023-05-10T08:33:23;15.00;99.90
26589;DHT22;14235;48.532;8.722;2023-05-10T08:35:49;15.30;99.90
26589;DHT22;14235;48.532;8.722;2023-05-10T08:38:14;15.10;99.90
26589;DHT22;14235;48.532;8.722;2023-05-10T08:40:42;15.20;99.90
26589;DHT22;14235;48.532;8.722;2023-05-10T08:43:11;15.20;99.90
26589;DHT22;14235;48.532;8.722;2023-05-10T08:45:39;15.20;99.90
26589;DHT22;14235;48.532;8.722;2023-05-10T08:48:06;15.40;99.90
26589;DHT22;14235;48.532;8.722;2023-05-10T08:50:36;15.10;99.90
26589;DHT22;14235;48.532;8.722;2023-05-10T08:53:06;15.20;99.90
26589;DHT22;14235;48.532;8.722;2023-05-10T08:55:35;15.50;99.90
26589;DHT22;14235;48.532;8.722;2023-05-10T08:58:03;15.20;99.90
26589;DHT22;14235;48.532;8.722;2023-05-10T09:00:29;15.40;99.90
26589;DHT22;14235;48.532;8.722;2023-05-10T09:02:56;15.30;99.90
26589;DHT22;14235;48.532;8.722;2023-05-10T09:05:23;15.40;99.90
26589;DHT22;14235;48.532;8.722;2023-05-10T09:07:48;15.40;99.90
26589;DHT22;14235;48.532;8.722;2023-05-10T09:10:14;15.40;99.90
26589;DHT22;14235;48.532;8.722;2023-05-10T09:12:40;15.40;99.90
26589;DHT22;14235;48.532;8.722;2023-05-10T09:15:07;15.20;99.90
26589;DHT22;14235;48.532;8.722;2023-05-10T09:17:33;15.40;99.90
26589;DHT22;14235;48.532;8.722;2023-05-10T09:20:00;15.50;99.90
26589;DHT22;14235;48.532;8.722;2023-05-10T09:22:26;15.50;99.90
26589;DHT22;14235;48.532;8.722;2023-05-10T09:25:09;15.60;99.90
26589;DHT22;14235;48.532;8.722;2023-05-10T09:27:36;15.40;99.90
26589;DHT22;14235;48.532;8.722;2023-05-10T09:30:03;15.70;99.90
26589;DHT22;14235;48.532;8.722;2023-05-10T09:32:44;15.50;99.90
26589;DHT22;14235;48.532;8.722;2023-05-10T09:35:15;15.60;99.90
26589;DHT22;14235;48.532;8.722;2023-05-10T09:37:43;15.50;99.90
26589;DHT22;14235;48.532;8.722;2023-05-10T09:40:13;15.50;99.90
26589;DHT22;14235;48.532;8.722;2023-05-10T09:42:41;15.60;99.90
26589;DHT22;14235;48.532;8.722;2023-05-10T09:45:08;15.80;99.90
26589;DHT22;14235;48.532;8.722;2023-05-10T09:47:34;15.60;99.90
26589;DHT22;14235;48.532;8.722;2023-05-10T09:50:02;15.60;99.90
26589;DHT22;14235;48.532;8.722;2023-05-10T09:52:30;15.80;99.90
26589;DHT22;14235;48.532;8.722;2023-05-10T09:54:55;15.80;99.90
26589;DHT22;14235;48.532;8.722;2023-05-10T09:57:22;15.60;99.90
26589;DHT22;14235;48.532;8.722;2023-05-10T09:59:49;15.90;99.90
26589;DHT22;14235;48.532;8.722;2023-05-10T10:02:16;15.50;99.90
26589;DHT22;14235;48.532;8.722;2023-05-10T10:04:42;15.70;99.90
26589;DHT22;14235;48.532;8.722;2023-05-10T10:07:08;15.70;99.90
26589;DHT22;14235;48.532;8.722;2023-05-10T10:09:34;15.70;99.90
26589;DHT22;14235;48.532;8.722;2023-05-10T10:12:01;15.60;99.90
26589;DHT22;14235;48.532;8.722;2023-05-10T10:14:28;15.50;99.90
26589;DHT22;14235;48.532;8.722;2023-05-10T10:16:54;15.50;99.90
26589;DHT22;14235;48.532;8.722;2023-05-10T10:19:20;15.60;99.90
26589;DHT22;14235;48.532;8.722;2023-05-10T10:21:50;15.50;99.90
26589;DHT22;14235;48.532;8.722;2023-05-10T10:24:15;15.40;99.90
26589;DHT22;14235;48.532;8.722;2023-05-10T10:26:42;15.10;99.90
26589;DHT22;14235;48.532;8.722;2023-05-10T10:34:41;15.00;99.90
26589;DHT22;14235;48.532;8.722;2023-05-10T10:37:06;15.00;99.90
26589;DHT22;14235;48.532;8.722;2023-05-10T10:39:32;14.90;99.90
26589;DHT22;14235;48.532;8.722;2023-05-10T10:41:59;14.90;99.90
26589;DHT22;14235;48.532;8.722;2023-05-10T11:03:08;15.20;99.90
26589;DHT22;14235;48.532;8.722;2023-05-10T11:05:44;15.40;99.90
26589;DHT22;14235;48.532;8.722;2023-05-10T11:08:34;15.40;99.90
26589;DHT22;14235;48.532;8.722;2023-05-10T11:15:57;15.60;99.90
26589;DHT22;14235;48.532;8.722;2023-05-10T11:18:25;15.80;99.90
26589;DHT22;14235;48.532;8.722;2023-05-10T11:20:52;15.50;99.90
26589;DHT22;14235;48.532;8.722;2023-05-10T11:23:18;15.50;99.90
26589;DHT22;14235;48.532;8.722;2023-05-10T11:25:45;15.70;99.90
26589;DHT22;14235;48.532;8.722;2023-05-10T11:28:12;15.50;99.90
26589;DHT22;14235;48.532;8.722;2023-05-10T11:30:42;15.40;99.90
26589;DHT22;14235;48.532;8.722;2023-05-10T11:33:09;15.50;99.90
26589;DHT22;14235;48.532;8.722;2023-05-10T11:35:38;15.20;99.90
26589;DHT22;14235;48.532;8.722;2023-05-10T11:38:08;15.30;99.90
26589;DHT22;14235;48.532;8.722;2023-05-10T11:40:35;15.20;99.90
26589;DHT22;14235;48.532;8.722;2023-05-10T11:43:02;15.40;99.90
26589;DHT22;14235;48.532;8.722;2023-05-10T11:45:28;15.10;99.90
26589;DHT22;14235;48.532;8.722;2023-05-10T11:47:55;15.10;99.90
26589;DHT22;14235;48.532;8.722;2023-05-10T11:50:21;15.10;99.90
26589;DHT22;14235;48.532;8.722;2023-05-10T11:52:54;15.20;99.90
26589;DHT22;14235;48.532;8.722;2023-05-10T11:55:20;15.30;99.90
26589;DHT22;14235;48.532;8.722;2023-05-10T11:57:46;15.20;99.90
26589;DHT22;14235;48.532;8.722;2023-05-10T12:00:12;15.50;99.90
26589;DHT22;14235;48.532;8.722;2023-05-10T12:02:38;15.20;99.90
26589;DHT22;14235;48.532;8.722;2023-05-10T12:05:05;15.30;99.90
26589;DHT22;14235;48.532;8.722;2023-05-10T12:07:31;15.20;99.90
26589;DHT22;14235;48.532;8.722;2023-05-10T12:10:13;15.30;99.90
26589;DHT22;14235;48.532;8.722;2023-05-10T12:12:46;15.20;99.90
26589;DHT22;14235;48.532;8.722;2023-05-10T12:15:21;15.50;99.90
26589;DHT22;14235;48.532;8.722;2023-05-10T12:17:48;15.30;99.90
26589;DHT22;14235;48.532;8.722;2023-05-10T12:22:47;15.40;99.90
26589;DHT22;14235;48.532;8.722;2023-05-10T12:25:14;15.50;99.90
26589;DHT22;14235;48.532;8.722;2023-05-10T12:27:40;15.40;99.90
26589;DHT22;14235;48.532;8.722;2023-05-10T12:30:06;15.70;99.90
26589;DHT22;14235;48.532;8.722;2023-05-10T12:32:43;15.50;99.90
26589;DHT22;14235;48.532;8.722;2023-05-10T12:35:09;15.50;99.90
26589;DHT22;14235;48.532;8.722;2023-05-10T12:37:35;15.70;99.90
26589;DHT22;14235;48.532;8.722;2023-05-10T12:40:06;15.80;99.90
26589;DHT22;14235;48.532;8.722;2023-05-10T12:42:32;15.50;99.90
26589;DHT22;14235;48.532;8.722;2023-05-10T12:44:57;15.40;99.90
26589;DHT22;14235;48.532;8.722;2023-05-10T12:47:23;15.60;99.90
26589;DHT22;14235;48.532;8.722;2023-05-10T12:49:49;16.10;99.90
26589;DHT22;14235;48.532;8.722;2023-05-10T12:52:14;15.80;99.90
26589;DHT22;14235;48.532;8.722;2023-05-10T12:54:40;15.70;99.90
26589;DHT22;14235;48.532;8.722;2023-05-10T12:57:05;15.70;99.90
26589;DHT22;14235;48.532;8.722;2023-05-10T12:59:31;15.90;99.90
26589;DHT22;14235;48.532;8.722;2023-05-10T13:01:57;16.00;99.90
26589;DHT22;14235;48.532;8.722;2023-05-10T13:04:23;15.90;99.90
26589;DHT22;14235;48.532;8.722;2023-05-10T13:06:49;15.70;99.90
26589;DHT22;14235;48.532;8.722;2023-05-10T13:09:14;16.10;99.90
26589;DHT22;14235;48.532;8.722;2023-05-10T13:11:40;15.90;99.90
26589;DHT22;14235;48.532;8.722;2023-05-10T13:14:06;16.00;99.90
26589;DHT22;14235;48.532;8.722;2023-05-10T13:16:32;16.30;99.90
26589;DHT22;14235;48.532;8.722;2023-05-10T13:18:58;16.00;99.90
26589;DHT22;14235;48.532;8.722;2023-05-10T13:21:23;16.40;99.90
26589;DHT22;14235;48.532;8.722;2023-05-10T13:23:50;16.60;99.90
26589;DHT22;14235;48.532;8.722;2023-05-10T13:26:16;16.20;99.90
26589;DHT22;14235;48.532;8.722;2023-05-10T13:28:41;16.40;99.90
26589;DHT22;14235;48.532;8.722;2023-05-10T13:31:07;16.10;99.90
26589;DHT22;14235;48.532;8.722;2023-05-10T13:33:33;16.10;99.90
26589;DHT22;14235;48.532;8.722;2023-05-10T13:35:58;16.10;99.90
26589;DHT22;14235;48.532;8.722;2023-05-10T13:38:24;16.20;99.90
26589;DHT22;14235;48.532;8.722;2023-05-10T13:40:49;16.20;99.90
26589;DHT22;14235;48.532;8.722;2023-05-10T13:43:18;16.50;99.90
26589;DHT22;14235;48.532;8.722;2023-05-10T13:45:44;16.20;99.90
26589;DHT22;14235;48.532;8.722;2023-05-10T13:48:09;16.70;99.90
26589;DHT22;14235;48.532;8.722;2023-05-10T13:50:35;16.10;99.90
26589;DHT22;14235;48.532;8.722;2023-05-10T13:53:00;16.20;99.90
26589;DHT22;14235;48.532;8.722;2023-05-10T13:55:26;16.20;99.90
26589;DHT22;14235;48.532;8.722;2023-05-10T13:57:52;16.50;99.90
26589;DHT22;14235;48.532;8.722;2023-05-10T14:00:18;16.30;99.90
26589;DHT22;14235;48.532;8.722;2023-05-10T14:02:43;16.30;99.90
26589;DHT22;14235;48.532;8.722;2023-05-10T14:05:09;16.50;99.90
26589;DHT22;14235;48.532;8.722;2023-05-10T14:07:34;16.60;99.90
26589;DHT22;14235;48.532;8.722;2023-05-10T14:10:00;16.40;99.90
26589;DHT22;14235;48.532;8.722;2023-05-10T14:12:26;16.60;99.90
26589;DHT22;14235;48.532;8.722;2023-05-10T14:14:52;16.30;99.90
26589;DHT22;14235;48.532;8.722;2023-05-10T14:17:17;16.40;99.90
26589;DHT22;14235;48.532;8.722;2023-05-10T14:19:43;16.40;99.90
26589;DHT22;14235;48.532;8.722;2023-05-10T14:22:09;16.60;99.90
26589;DHT22;14235;48.532;8.722;2023-05-10T14:24:34;16.70;99.90
26589;DHT22;14235;48.532;8.722;2023-05-10T14:27:00;16.50;99.90
26589;DHT22;14235;48.532;8.722;2023-05-10T14:29:26;16.20;99.90
26589;DHT22;14235;48.532;8.722;2023-05-10T14:31:51;16.40;99.90
26589;DHT22;14235;48.532;8.722;2023-05-10T14:34:17;16.60;99.90
26589;DHT22;14235;48.532;8.722;2023-05-10T14:36:42;16.60;99.90
26589;DHT22;14235;48.532;8.722;2023-05-10T14:39:08;16.80;99.90
26589;DHT22;14235;48.532;8.722;2023-05-10T14:41:35;16.80;99.90
26589;DHT22;14235;48.532;8.722;2023-05-10T14:44:01;16.50;99.90
26589;DHT22;14235;48.532;8.722;2023-05-10T14:46:28;16.60;99.90
26589;DHT22;14235;48.532;8.722;2023-05-10T14:48:55;16.80;99.90
26589;DHT22;14235;48.532;8.722;2023-05-10T14:51:20;16.60;99.90
26589;DHT22;14235;48.532;8.722;2023-05-10T14:53:48;16.70;99.90
26589;DHT22;14235;48.532;8.722;2023-05-10T14:56:14;16.70;99.90
26589;DHT22;14235;48.532;8.722;2023-05-10T14:58:40;16.50;99.90
26589;DHT22;14235;48.532;8.722;2023-05-10T15:01:05;16.60;99.90
26589;DHT22;14235;48.532;8.722;2023-05-10T15:03:31;16.50;99.90
26589;DHT22;14235;48.532;8.722;2023-05-10T15:05:56;16.60;99.90
26589;DHT22;14235;48.532;8.722;2023-05-10T15:08:23;16.60;99.90
26589;DHT22;14235;48.532;8.722;2023-05-10T15:10:50;16.80;99.90
26589;DHT22;14235;48.532;8.722;2023-05-10T15:13:15;16.60;99.90
26589;DHT22;14235;48.532;8.722;2023-05-10T15:15:42;16.80;99.90
26589;DHT22;14235;48.532;8.722;2023-05-10T15:18:08;16.70;99.90
26589;DHT22;14235;48.532;8.722;2023-05-10T15:20:34;16.60;99.90
26589;DHT22;14235;48.532;8.722;2023-05-10T15:23:00;16.60;99.90
26589;DHT22;14235;48.532;8.722;2023-05-10T15:25:26;16.50;99.90
26589;DHT22;14235;48.532;8.722;2023-05-10T15:27:52;16.40;99.90
26589;DHT22;14235;48.532;8.722;2023-05-10T15:30:18;16.60;99.90
26589;DHT22;14235;48.532;8.722;2023-05-10T15:32:44;16.30;99.90
26589;DHT22;14235;48.532;8.722;2023-05-10T15:35:09;16.40;99.90
26589;DHT22;14235;48.532;8.722;2023-05-10T15:37:36;16.20;99.90
26589;DHT22;14235;48.532;8.722;2023-05-10T15:40:01;16.30;99.90
26589;DHT22;14235;48.532;8.722;2023-05-10T15:42:30;16.10;99.90
26589;DHT22;14235;48.532;8.722;2023-05-10T15:44:57;16.20;99.90
26589;DHT22;14235;48.532;8.722;2023-05-10T15:47:23;16.10;99.90
26589;DHT22;14235;48.532;8.722;2023-05-10T15:49:48;16.10;99.90
26589;DHT22;14235;48.532;8.722;2023-05-10T15:52:14;16.30;99.90
26589;DHT22;14235;48.532;8.722;2023-05-10T15:54:41;16.10;99.90
26589;DHT22;14235;48.532;8.722;2023-05-10T15:57:06;15.80;99.90
26589;DHT22;14235;48.532;8.722;2023-05-10T15:59:32;15.70;99.90
26589;DHT22;14235;48.532;8.722;2023-05-10T16:01:58;15.50;99.90
26589;DHT22;14235;48.532;8.722;2023-05-10T16:04:24;15.50;99.90
26589;DHT22;14235;48.532;8.722;2023-05-10T16:06:50;15.40;99.90
26589;DHT22;14235;48.532;8.722;2023-05-10T16:09:15;15.40;99.90
26589;DHT22;14235;48.532;8.722;2023-05-10T16:11:46;15.50;99.90
26589;DHT22;14235;48.532;8.722;2023-05-10T16:14:12;15.60;99.90
26589;DHT22;14235;48.532;8.722;2023-05-10T16:16:38;15.70;99.90
26589;DHT22;14235;48.532;8.722;2023-05-10T16:19:03;15.50;99.90